createdAt,value
2022-12-15T00:02:19.920Z,53.46
2022-12-15T00:05:06.611Z,54.29
2022-12-15T00:07:52.782Z,54.77
2022-12-15T00:10:38.993Z,54.03
2022-12-15T00:13:30.208Z,54.12
2022-12-15T00:16:17.726Z,54.57
2022-12-15T00:19:04.090Z,54.72
2022-12-15T00:21:50.004Z,55.26
2022-12-15T00:24:36.020Z,54.59
2022-12-15T00:27:21.591Z,55.33
2022-12-15T00:30:07.064Z,55.38
2022-12-15T00:32:54.054Z,54.73
2022-12-15T00:35:39.860Z,55.64
2022-12-15T00:38:27.390Z,55.28
2022-12-15T00:40:58.939Z,54.25
2022-12-15T00:43:26.455Z,54.97
2022-12-15T00:46:12.356Z,54.52
2022-12-15T00:48:41.455Z,54.82
2022-12-15T00:51:09.153Z,54.04
2022-12-15T00:53:54.899Z,53.81
2022-12-15T00:56:40.558Z,54.56
2022-12-15T00:59:26.463Z,54.00
2022-12-15T01:02:12.141Z,53.88
2022-12-15T01:04:59.101Z,53.91
2022-12-15T01:07:45.166Z,53.56
2022-12-15T01:10:36.525Z,54.83
2022-12-15T01:13:23.625Z,54.55
2022-12-15T01:16:09.211Z,54.48
2022-12-15T01:18:54.895Z,53.59
2022-12-15T01:21:25.423Z,53.44
2022-12-15T01:23:53.370Z,53.06
2022-12-15T01:26:20.428Z,53.75
2022-12-15T01:28:47.473Z,53.26
2022-12-15T01:31:14.847Z,53.56
2022-12-15T01:33:45.103Z,53.69
2022-12-15T01:36:12.347Z,52.82
2022-12-15T01:38:42.646Z,53.27
2022-12-15T01:41:12.290Z,53.29
2022-12-15T01:43:40.992Z,52.68
2022-12-15T01:46:10.837Z,52.72
2022-12-15T01:48:46.148Z,52.86
2022-12-15T01:51:19.683Z,52.06
2022-12-15T01:53:59.736Z,52.25
2022-12-15T01:56:37.083Z,52.83
2022-12-15T01:59:08.980Z,53.02
2022-12-15T02:01:36.396Z,52.14
2022-12-15T02:04:04.059Z,52.64
2022-12-15T02:06:31.084Z,52.40
2022-12-15T02:09:01.828Z,53.09
2022-12-15T02:11:59.417Z,53.17
2022-12-15T02:14:54.142Z,53.13
2022-12-15T02:17:36.363Z,52.71
2022-12-15T02:20:45.853Z,53.62
2022-12-15T02:24:04.416Z,53.74
2022-12-15T02:27:15.685Z,53.69
2022-12-15T02:30:22.846Z,53.11
2022-12-15T02:33:06.732Z,53.37
2022-12-15T02:35:47.626Z,54.43
2022-12-15T02:38:14.744Z,54.02
2022-12-15T02:40:42.863Z,53.96
2022-12-15T02:43:11.016Z,54.06
2022-12-15T02:45:56.014Z,53.85
2022-12-15T02:48:36.106Z,53.83
2022-12-15T02:51:22.037Z,53.33
2022-12-15T02:54:14.379Z,53.03
2022-12-15T02:56:54.660Z,53.07
2022-12-15T02:59:34.236Z,52.71
2022-12-15T03:02:06.496Z,52.45
2022-12-15T03:04:34.029Z,53.21
2022-12-15T03:07:04.802Z,52.70
2022-12-15T03:09:33.191Z,53.23
2022-12-15T03:12:00.759Z,53.74
2022-12-15T03:14:28.395Z,53.64
2022-12-15T03:16:56.004Z,52.86
2022-12-15T03:19:25.761Z,53.53
2022-12-15T03:21:53.029Z,53.37
2022-12-15T03:24:20.038Z,52.86
2022-12-15T03:26:49.893Z,53.37
2022-12-15T03:29:17.275Z,53.53
2022-12-15T03:31:44.789Z,53.08
2022-12-15T03:34:12.123Z,53.11
2022-12-15T03:36:40.496Z,54.08
2022-12-15T03:39:07.604Z,53.29
2022-12-15T03:41:34.735Z,53.74
2022-12-15T03:44:02.183Z,53.80
2022-12-15T03:46:29.225Z,54.31
2022-12-15T03:48:56.401Z,53.31
2022-12-15T03:51:23.530Z,53.89
2022-12-15T03:53:52.075Z,53.71
2022-12-15T03:56:19.360Z,53.72
2022-12-15T03:58:46.889Z,53.31
2022-12-15T04:01:27.103Z,54.02
2022-12-15T04:04:00.191Z,53.15
2022-12-15T04:06:28.866Z,53.53
2022-12-15T04:08:57.268Z,53.69
2022-12-15T04:11:24.250Z,53.88
2022-12-15T04:13:51.392Z,54.01
2022-12-15T04:16:20.313Z,54.30
2022-12-15T04:19:07.583Z,54.69
2022-12-15T04:21:34.556Z,54.61
2022-12-15T04:24:21.703Z,54.71
2022-12-15T04:27:07.625Z,55.36
2022-12-15T04:29:53.047Z,54.68
2022-12-15T04:32:38.655Z,55.79
2022-12-15T04:35:25.223Z,55.53
2022-12-15T04:38:11.723Z,55.35
2022-12-15T04:40:59.055Z,54.62
2022-12-15T04:43:44.639Z,54.58
2022-12-15T04:46:30.342Z,54.68
2022-12-15T04:49:16.071Z,54.57
2022-12-15T04:52:01.595Z,54.61
2022-12-15T04:54:47.459Z,55.04
2022-12-15T04:57:34.257Z,55.58
2022-12-15T05:00:19.732Z,56.02
2022-12-15T05:03:05.491Z,55.76
2022-12-15T05:05:51.215Z,55.36
2022-12-15T05:08:36.823Z,55.89
2022-12-15T05:11:22.612Z,54.67
2022-12-15T05:14:09.408Z,55.39
2022-12-15T05:16:55.015Z,55.13
2022-12-15T05:19:40.718Z,54.71
2022-12-15T05:22:26.338Z,54.86
2022-12-15T05:25:11.984Z,54.79
2022-12-15T05:27:57.315Z,54.85
2022-12-15T05:30:44.081Z,54.44
2022-12-15T05:33:11.086Z,54.55
2022-12-15T05:35:37.995Z,54.75
2022-12-15T05:38:05.874Z,55.05
2022-12-15T05:40:32.987Z,54.58
2022-12-15T05:43:00.824Z,55.26
2022-12-15T05:45:29.157Z,54.77
2022-12-15T05:47:56.468Z,55.83
2022-12-15T05:50:23.637Z,55.46
2022-12-15T05:52:50.755Z,55.36
2022-12-15T05:55:18.835Z,55.11
2022-12-15T05:57:51.850Z,55.07
2022-12-15T06:00:19.544Z,54.86
2022-12-15T06:02:48.032Z,55.33
2022-12-15T06:05:17.293Z,55.29
2022-12-15T06:07:44.362Z,55.68
2022-12-15T06:10:11.734Z,56.44
2022-12-15T06:12:38.761Z,56.68
2022-12-15T06:15:07.065Z,56.85
2022-12-15T06:17:34.128Z,56.80
2022-12-15T06:20:02.884Z,56.32
2022-12-15T06:22:30.000Z,57.28
2022-12-15T06:24:57.025Z,56.97
2022-12-15T06:27:24.072Z,57.11
2022-12-15T06:29:51.146Z,57.91
2022-12-15T06:32:18.129Z,56.94
2022-12-15T06:34:45.154Z,56.75
2022-12-15T06:37:13.435Z,56.36
2022-12-15T06:39:40.625Z,57.11
2022-12-15T06:42:07.641Z,56.34
2022-12-15T06:44:34.747Z,56.23
2022-12-15T06:47:01.777Z,56.23
2022-12-15T06:49:28.762Z,56.26
2022-12-15T06:51:55.992Z,56.19
2022-12-15T06:54:24.779Z,56.11
2022-12-15T06:56:52.055Z,56.49
2022-12-15T06:59:19.033Z,56.67
2022-12-15T07:01:46.306Z,55.74
2022-12-15T07:04:13.541Z,56.42
2022-12-15T07:06:41.088Z,56.41
2022-12-15T07:09:16.009Z,56.01
2022-12-15T07:11:45.126Z,57.09
2022-12-15T07:14:12.394Z,57.28
2022-12-15T07:16:39.482Z,57.46
2022-12-15T07:19:06.522Z,57.82
2022-12-15T07:21:33.678Z,57.64
2022-12-15T07:24:01.716Z,58.27
2022-12-15T07:26:29.324Z,57.94
2022-12-15T07:28:57.652Z,58.43
2022-12-15T07:31:24.857Z,57.76
2022-12-15T07:33:52.426Z,57.68
2022-12-15T07:36:20.027Z,57.90
2022-12-15T07:38:50.719Z,57.69
2022-12-15T07:41:19.772Z,58.55
2022-12-15T07:43:47.569Z,58.43
2022-12-15T07:46:17.398Z,57.62
2022-12-15T07:48:50.200Z,57.07
2022-12-15T07:51:20.297Z,57.08
2022-12-15T07:53:49.661Z,57.16
2022-12-15T07:56:18.233Z,57.52
2022-12-15T07:58:45.247Z,57.11
2022-12-15T08:01:15.647Z,57.45
2022-12-15T08:03:42.812Z,58.41
2022-12-15T08:06:12.324Z,58.26
2022-12-15T08:08:40.344Z,58.98
2022-12-15T08:11:09.956Z,59.13
2022-12-15T08:16:29.064Z,58.98
2022-12-15T08:18:57.494Z,58.34
2022-12-15T08:21:24.790Z,58.45
2022-12-15T08:23:52.025Z,58.29
2022-12-15T08:26:22.648Z,58.21
2022-12-15T08:28:54.181Z,57.58
2022-12-15T08:31:23.770Z,57.93
2022-12-15T08:33:52.356Z,57.72
2022-12-15T08:36:20.345Z,57.59
2022-12-15T08:38:47.728Z,58.62
2022-12-15T08:41:17.749Z,57.68
2022-12-15T08:43:48.955Z,58.35
2022-12-15T08:46:22.515Z,57.58
2022-12-15T08:48:53.447Z,57.69
2022-12-15T08:51:23.035Z,57.52
2022-12-15T08:53:50.401Z,57.11
2022-12-15T08:56:22.149Z,57.11
2022-12-15T08:58:55.040Z,56.70
2022-12-15T09:01:24.474Z,56.70
2022-12-15T09:03:55.346Z,56.19
2022-12-15T09:06:25.970Z,56.34
2022-12-15T09:08:56.459Z,56.30
2022-12-15T09:11:23.906Z,56.14
2022-12-15T09:13:59.101Z,56.12
2022-12-15T09:16:28.247Z,56.04
2022-12-15T09:19:29.214Z,55.93
2022-12-15T09:21:56.396Z,56.15
2022-12-15T09:24:32.482Z,55.96
2022-12-15T09:27:10.006Z,55.72
2022-12-15T09:29:37.014Z,56.35
2022-12-15T09:32:10.529Z,55.77
2022-12-15T09:34:42.189Z,55.34
2022-12-15T09:37:09.214Z,55.65
2022-12-15T09:42:32.658Z,52.62
2022-12-15T09:45:07.533Z,53.17
2022-12-15T09:47:45.196Z,53.45
2022-12-15T09:50:19.276Z,53.36
2022-12-15T09:52:51.679Z,53.21
2022-12-15T09:55:22.957Z,53.21
2022-12-15T09:57:56.461Z,53.28
2022-12-15T10:00:30.881Z,53.68
2022-12-15T10:03:34.714Z,53.23
2022-12-15T10:06:21.581Z,53.48
2022-12-15T10:08:55.875Z,53.76
2022-12-15T10:11:50.340Z,52.43
2022-12-15T10:14:30.420Z,52.39
2022-12-15T10:17:14.196Z,52.75
2022-12-15T10:19:52.272Z,51.71
2022-12-15T10:22:27.029Z,52.55
2022-12-15T10:25:09.868Z,52.06
2022-12-15T10:28:08.386Z,52.42
2022-12-15T10:30:43.755Z,52.24
2022-12-15T10:33:19.933Z,53.07
2022-12-15T10:35:48.666Z,52.59
2022-12-15T10:38:34.542Z,52.90
2022-12-15T10:41:07.619Z,52.71
2022-12-15T10:43:38.183Z,51.88
2022-12-15T10:46:14.149Z,52.74
2022-12-15T10:48:42.719Z,52.14
2022-12-15T10:51:30.812Z,52.82
2022-12-15T10:54:15.557Z,52.40
2022-12-15T10:56:50.345Z,52.62
2022-12-15T10:59:28.808Z,51.72
2022-12-15T11:02:23.106Z,51.87
2022-12-15T11:04:56.470Z,51.43
2022-12-15T11:07:27.701Z,51.95
2022-12-15T11:10:01.242Z,52.10
2022-12-15T11:12:50.718Z,50.97
2022-12-15T11:15:46.045Z,51.67
2022-12-15T11:18:38.071Z,51.39
2022-12-15T11:21:12.165Z,51.11
2022-12-15T11:24:02.065Z,52.09
2022-12-15T11:26:46.797Z,51.74
2022-12-15T11:29:30.857Z,51.08
2022-12-15T11:34:47.590Z,50.86
2022-12-15T11:37:37.375Z,49.47
2022-12-15T11:40:39.571Z,48.45
2022-12-15T11:43:44.709Z,46.00
2022-12-15T11:46:22.662Z,44.89
2022-12-15T11:49:16.061Z,44.65
2022-12-15T11:51:51.899Z,44.44
2022-12-15T11:54:28.692Z,43.46
2022-12-15T11:57:09.302Z,43.76
2022-12-15T12:00:02.412Z,44.00
2022-12-15T12:02:52.205Z,43.96
2022-12-15T12:05:43.961Z,44.86
2022-12-15T12:08:29.804Z,44.12
2022-12-15T12:11:10.429Z,44.67
2022-12-15T12:13:50.296Z,44.47
2022-12-15T12:16:35.822Z,43.97
2022-12-15T12:19:09.931Z,44.59
2022-12-15T12:21:42.884Z,45.23
2022-12-15T12:24:19.725Z,45.92
2022-12-15T12:26:54.741Z,46.18
2022-12-15T12:29:31.142Z,46.87
2022-12-15T12:32:10.444Z,47.23
2022-12-15T12:35:32.012Z,47.66
2022-12-15T12:38:02.880Z,47.91
2022-12-15T12:40:48.550Z,48.18
2022-12-15T12:43:33.119Z,47.94
2022-12-15T12:46:10.336Z,48.94
2022-12-15T12:48:48.568Z,49.31
2022-12-15T12:51:29.842Z,49.44
2022-12-15T12:53:58.260Z,49.60
2022-12-15T12:56:34.889Z,49.61
2022-12-15T12:59:08.596Z,50.53
2022-12-15T13:01:38.324Z,50.77
2022-12-15T13:04:11.659Z,49.76
2022-12-15T13:07:06.836Z,50.64
2022-12-15T13:09:41.255Z,50.04
2022-12-15T13:12:53.235Z,50.42
2022-12-15T13:15:42.821Z,49.64
2022-12-15T13:18:18.989Z,50.29
2022-12-15T13:20:50.779Z,50.38
2022-12-15T13:23:43.945Z,50.51
2022-12-15T13:26:18.839Z,50.41
2022-12-15T13:28:51.687Z,50.80
2022-12-15T13:31:30.269Z,50.78
2022-12-15T13:34:17.996Z,50.83
2022-12-15T13:37:01.073Z,50.77
2022-12-15T13:40:07.060Z,50.52
2022-12-15T13:42:53.126Z,50.34
2022-12-15T13:45:56.384Z,50.28
2022-12-15T13:51:43.781Z,50.27
2022-12-15T13:54:22.589Z,50.17
2022-12-15T13:57:03.418Z,50.19
2022-12-15T13:59:41.800Z,50.64
2022-12-15T14:02:27.615Z,49.91
2022-12-15T14:05:17.539Z,50.58
2022-12-15T14:07:54.403Z,50.13
2022-12-15T14:10:29.878Z,49.79
2022-12-15T14:13:01.031Z,50.46
2022-12-15T14:15:32.485Z,49.27
2022-12-15T14:18:02.268Z,49.46
2022-12-15T14:20:41.054Z,49.98
2022-12-15T14:23:18.965Z,49.92
2022-12-15T14:25:56.466Z,50.81
2022-12-15T14:28:27.479Z,50.93
2022-12-15T14:31:00.253Z,51.06
2022-12-15T14:36:19.723Z,51.42
2022-12-15T14:38:53.798Z,51.13
2022-12-15T14:41:27.543Z,51.29
2022-12-15T14:44:32.080Z,52.02
2022-12-15T14:46:49.665Z,51.78
2022-12-15T14:49:25.812Z,51.45
2022-12-15T14:52:01.923Z,52.36
2022-12-15T14:54:36.951Z,52.15
2022-12-15T14:57:15.863Z,51.84
2022-12-15T14:59:45.790Z,52.48
2022-12-15T15:02:19.820Z,52.21
2022-12-15T15:03:06.891Z,50.65
2022-12-15T15:03:07.606Z,50.11
2022-12-15T15:04:59.574Z,51.80
2022-12-15T15:07:31.538Z,52.25
2022-12-15T15:10:00.185Z,52.76
2022-12-15T15:12:44.632Z,52.96
2022-12-15T15:15:17.511Z,53.20
2022-12-15T15:17:52.221Z,53.32
2022-12-15T15:20:22.891Z,53.75
2022-12-15T15:23:18.851Z,53.38
2022-12-15T15:25:54.548Z,54.01
2022-12-15T15:29:18.376Z,54.25
2022-12-15T15:32:14.433Z,54.15
2022-12-15T15:34:41.859Z,54.74
2022-12-15T15:37:24.061Z,54.92
2022-12-15T15:39:55.917Z,54.40
2022-12-15T15:42:26.660Z,55.12
2022-12-15T15:45:02.106Z,54.42
2022-12-15T15:47:32.387Z,54.47
2022-12-15T15:50:00.309Z,55.05
2022-12-15T15:52:31.852Z,54.10
2022-12-15T15:54:59.706Z,55.05
2022-12-15T15:57:26.960Z,54.86
2022-12-15T15:59:54.841Z,54.79
2022-12-15T16:02:23.511Z,55.37
2022-12-15T16:04:50.778Z,55.29
2022-12-15T16:07:24.255Z,55.40
2022-12-15T16:09:52.866Z,54.87
2022-12-15T16:12:27.823Z,54.67
2022-12-15T16:14:55.684Z,54.66
2022-12-15T16:17:25.232Z,55.32
2022-12-15T16:19:54.443Z,54.65
2022-12-15T16:22:22.479Z,54.43
2022-12-15T16:24:56.895Z,54.71
2022-12-15T16:27:24.354Z,54.66
2022-12-15T16:29:51.616Z,55.36
2022-12-15T16:32:18.796Z,55.66
2022-12-15T16:34:49.577Z,55.44
2022-12-15T16:37:27.202Z,55.48
2022-12-15T16:39:54.390Z,55.68
2022-12-15T16:42:21.510Z,55.25
2022-12-15T16:44:48.643Z,55.58
2022-12-15T16:47:16.040Z,55.19
2022-12-15T16:49:43.067Z,55.88
2022-12-15T16:52:20.240Z,56.27
2022-12-15T16:54:50.045Z,55.67
2022-12-15T16:57:18.371Z,56.24
2022-12-15T16:59:45.379Z,56.45
2022-12-15T17:02:28.332Z,55.74
2022-12-15T17:04:55.814Z,56.12
2022-12-15T17:07:26.905Z,56.05
2022-12-15T17:10:00.166Z,55.86
2022-12-15T17:12:27.215Z,57.31
2022-12-15T17:14:54.199Z,57.26
2022-12-15T17:17:21.431Z,57.50
2022-12-15T17:20:27.311Z,56.17
2022-12-15T17:22:38.689Z,57.15
2022-12-15T17:25:06.424Z,56.21
2022-12-15T17:27:36.939Z,56.78
2022-12-15T17:30:05.260Z,57.31
2022-12-15T17:32:32.368Z,56.31
2022-12-15T17:34:59.286Z,57.31
2022-12-15T17:37:30.568Z,56.89
2022-12-15T17:40:13.563Z,57.46
2022-12-15T17:42:40.583Z,57.01
2022-12-15T17:45:20.419Z,57.02
2022-12-15T17:47:49.048Z,57.31
2022-12-15T17:50:17.151Z,56.84
2022-12-15T17:52:47.745Z,57.39
2022-12-15T17:55:24.251Z,57.67
2022-12-15T17:57:55.356Z,57.79
2022-12-15T18:00:26.269Z,57.29
2022-12-15T18:02:54.621Z,57.47
2022-12-15T18:05:26.026Z,57.09
2022-12-15T18:07:56.712Z,57.76
2022-12-15T18:10:31.267Z,57.68
2022-12-15T18:12:59.710Z,57.44
2022-12-15T18:15:29.666Z,57.46
2022-12-15T18:17:58.579Z,58.05
2022-12-15T18:20:26.132Z,57.87
2022-12-15T18:22:53.846Z,57.96
2022-12-15T18:25:28.484Z,58.20
2022-12-15T18:27:58.361Z,57.44
2022-12-15T18:30:27.101Z,57.49
2022-12-15T18:32:58.611Z,57.76
2022-12-15T18:35:34.285Z,57.52
2022-12-15T18:38:01.258Z,58.21
2022-12-15T18:40:30.359Z,58.17
2022-12-15T18:42:57.425Z,57.70
2022-12-15T18:45:28.248Z,58.13
2022-12-15T18:47:55.523Z,57.44
2022-12-15T18:50:26.331Z,58.24
2022-12-15T18:52:58.912Z,57.67
2022-12-15T18:55:31.088Z,58.31
2022-12-15T18:58:01.780Z,58.31
2022-12-15T19:00:30.325Z,57.92
2022-12-15T19:03:00.064Z,58.00
2022-12-15T19:05:29.170Z,57.95
2022-12-15T19:08:01.613Z,58.51
2022-12-15T19:10:33.723Z,58.22
2022-12-15T19:13:01.069Z,58.50
2022-12-15T19:15:28.491Z,58.10
2022-12-15T19:18:14.130Z,58.79
2022-12-15T19:21:00.026Z,58.08
2022-12-15T19:23:26.997Z,58.63
2022-12-15T19:25:55.363Z,58.62
2022-12-15T19:28:24.051Z,58.10
2022-12-15T19:30:52.101Z,58.61
2022-12-15T19:33:20.246Z,58.69
2022-12-15T19:35:51.334Z,58.39
2022-12-15T19:38:25.532Z,58.31
2022-12-15T19:40:55.297Z,58.46
2022-12-15T19:43:24.371Z,58.26
2022-12-15T19:45:52.266Z,58.13
2022-12-15T19:48:23.334Z,58.36
2022-12-15T19:50:52.307Z,58.18
2022-12-15T19:53:25.998Z,57.96
2022-12-15T19:55:57.989Z,58.60
2022-12-15T19:58:29.436Z,58.39
2022-12-15T20:01:00.183Z,58.20
2022-12-15T20:03:29.121Z,58.01
2022-12-15T20:05:58.872Z,57.91
2022-12-15T20:08:29.327Z,57.75
2022-12-15T20:10:57.849Z,57.94
2022-12-15T20:13:26.410Z,57.80
2022-12-15T20:15:54.471Z,58.03
2022-12-15T20:18:21.543Z,57.57
2022-12-15T20:20:49.906Z,58.08
2022-12-15T20:23:20.672Z,57.59
2022-12-15T20:25:47.896Z,57.70
2022-12-15T20:28:22.475Z,56.79
2022-12-15T20:30:51.077Z,57.22
2022-12-15T20:33:19.906Z,57.10
2022-12-15T20:35:49.853Z,57.02
2022-12-15T20:38:28.576Z,56.48
2022-12-15T20:40:56.994Z,56.23
2022-12-15T20:43:27.883Z,56.29
2022-12-15T20:46:05.605Z,56.65
2022-12-15T20:48:36.426Z,56.38
2022-12-15T20:51:09.241Z,56.49
2022-12-15T20:53:37.843Z,55.97
2022-12-15T20:56:06.114Z,55.95
2022-12-15T20:58:40.201Z,55.75
2022-12-15T21:01:18.453Z,55.76
2022-12-15T21:03:46.601Z,56.53
2022-12-15T21:06:13.871Z,55.69
2022-12-15T21:08:41.428Z,56.18
2022-12-15T21:11:16.045Z,55.62
2022-12-15T21:13:46.933Z,55.64
2022-12-15T21:16:16.654Z,55.79
2022-12-15T21:21:34.359Z,55.49
2022-12-15T21:24:08.198Z,56.32
2022-12-15T21:26:35.245Z,56.12
2022-12-15T21:29:12.878Z,55.43
2022-12-15T21:31:39.868Z,55.98
2022-12-15T21:34:07.053Z,55.31
2022-12-15T21:36:34.078Z,55.61
2022-12-15T21:39:01.305Z,55.74
2022-12-15T21:41:28.289Z,55.26
2022-12-15T21:43:55.230Z,55.89
2022-12-15T21:46:28.908Z,55.19
2022-12-15T21:49:15.276Z,55.75
2022-12-15T21:51:46.872Z,55.89
2022-12-15T21:54:20.345Z,55.82
2022-12-15T21:56:48.601Z,55.43
2022-12-15T21:59:20.656Z,56.25
2022-12-15T22:01:50.551Z,55.96
2022-12-15T22:04:29.801Z,56.16
2022-12-15T22:06:56.820Z,55.46
2022-12-15T22:09:23.958Z,55.45
2022-12-15T22:11:55.949Z,55.95
2022-12-15T22:14:27.110Z,55.48
2022-12-15T22:16:55.896Z,56.11
2022-12-15T22:19:23.774Z,55.86
2022-12-15T22:21:51.073Z,56.14
2022-12-15T22:24:20.007Z,55.83
2022-12-15T22:26:47.539Z,55.83
2022-12-15T22:29:18.183Z,55.85
2022-12-15T22:31:45.132Z,56.72
2022-12-15T22:34:16.898Z,56.06
2022-12-15T22:36:44.171Z,56.32
2022-12-15T22:39:11.421Z,56.76
2022-12-15T22:41:41.365Z,55.92
2022-12-15T22:44:18.103Z,56.18
2022-12-15T22:46:45.553Z,55.35
2022-12-15T22:49:18.017Z,54.71
2022-12-15T22:51:45.278Z,54.94
2022-12-15T22:54:19.375Z,55.45
2022-12-15T22:56:50.570Z,54.93
2022-12-15T22:59:25.997Z,54.96
2022-12-15T23:01:53.315Z,55.19
2022-12-15T23:04:24.189Z,55.49
2022-12-15T23:06:51.687Z,55.18
2022-12-15T23:09:19.007Z,55.35
2022-12-15T23:11:46.011Z,55.06
2022-12-15T23:14:17.042Z,55.05
2022-12-15T23:16:46.219Z,55.05
2022-12-15T23:19:25.422Z,54.88
2022-12-15T23:21:53.690Z,54.90
2022-12-15T23:24:20.699Z,55.15
2022-12-15T23:26:47.671Z,55.35
2022-12-15T23:29:14.632Z,55.61
2022-12-15T23:31:41.731Z,56.00
2022-12-15T23:34:08.787Z,56.08
2022-12-15T23:36:35.779Z,56.32
2022-12-15T23:39:04.157Z,56.33
2022-12-15T23:41:31.130Z,55.84
2022-12-15T23:43:58.108Z,55.61
2022-12-15T23:46:25.105Z,55.45
2022-12-15T23:48:52.184Z,55.61
2022-12-15T23:51:20.617Z,55.49
2022-12-15T23:53:48.730Z,55.46
2022-12-15T23:56:20.334Z,55.35
2022-12-15T23:58:53.962Z,55.30
